createdAt,value
2023-03-08T00:00:59.979Z,4.70
2023-03-08T00:02:01.465Z,4.70
2023-03-08T00:03:03.649Z,4.70
2023-03-08T00:04:05.116Z,4.70
2023-03-08T00:05:07.764Z,4.70
2023-03-08T00:06:12.811Z,4.70
2023-03-08T00:07:15.395Z,4.70
2023-03-08T00:08:18.192Z,4.70
2023-03-08T00:09:19.738Z,4.70
2023-03-08T00:10:22.858Z,4.70
2023-03-08T00:11:25.105Z,4.70
2023-03-08T00:12:26.758Z,4.70
2023-03-08T00:13:28.191Z,4.70
2023-03-08T00:14:29.666Z,4.70
2023-03-08T00:15:31.275Z,4.70
2023-03-08T00:16:32.996Z,4.70
2023-03-08T00:17:37.431Z,4.70
2023-03-08T00:18:38.905Z,4.70
2023-03-08T00:19:40.363Z,4.70
2023-03-08T00:20:42.008Z,4.70
2023-03-08T00:21:43.655Z,4.70
2023-03-08T00:22:45.172Z,4.70
2023-03-08T00:23:46.968Z,4.70
2023-03-08T00:24:48.767Z,4.70
2023-03-08T00:25:53.817Z,4.70
2023-03-08T00:26:55.240Z,4.70
2023-03-08T00:27:56.664Z,4.70
2023-03-08T00:28:58.077Z,4.70
2023-03-08T00:30:04.108Z,4.60
2023-03-08T00:31:09.678Z,4.70
2023-03-08T00:32:11.483Z,4.70
2023-03-08T00:33:12.996Z,4.70
2023-03-08T00:34:14.631Z,4.60
2023-03-08T00:35:16.335Z,4.60
2023-03-08T00:36:19.415Z,4.60
2023-03-08T00:37:21.205Z,4.70
2023-03-08T00:38:22.968Z,4.70
2023-03-08T00:39:24.440Z,4.70
2023-03-08T00:40:26.003Z,4.70
2023-03-08T00:41:28.202Z,4.70
2023-03-08T00:42:29.722Z,4.60
2023-03-08T00:43:33.654Z,4.70
2023-03-08T00:44:37.800Z,4.60
2023-03-08T00:45:40.068Z,4.50
2023-03-08T00:46:41.617Z,4.60
2023-03-08T00:47:43.120Z,4.50
2023-03-08T00:48:44.683Z,4.50
2023-03-08T00:49:46.531Z,4.50
2023-03-08T00:50:49.473Z,4.60
2023-03-08T00:51:51.037Z,4.50
2023-03-08T00:52:52.463Z,4.50
2023-03-08T00:53:54.090Z,4.50
2023-03-08T00:54:56.215Z,4.50
2023-03-08T00:55:59.181Z,4.40
2023-03-08T00:57:01.535Z,4.40
2023-03-08T00:58:03.608Z,4.40
2023-03-08T00:59:05.472Z,4.40
2023-03-08T01:00:10.720Z,4.40
2023-03-08T01:01:18.416Z,4.40
2023-03-08T01:02:22.187Z,4.40
2023-03-08T01:03:24.761Z,4.30
2023-03-08T01:04:26.575Z,4.30
2023-03-08T01:05:27.973Z,4.30
2023-03-08T01:06:29.389Z,4.30
2023-03-08T01:07:31.056Z,4.30
2023-03-08T01:08:32.490Z,4.30
2023-03-08T01:09:34.117Z,4.30
2023-03-08T01:10:35.890Z,4.40
2023-03-08T01:11:38.043Z,4.50
2023-03-08T01:12:41.044Z,4.50
2023-03-08T01:13:42.635Z,4.50
2023-03-08T01:14:44.858Z,4.40
2023-03-08T01:15:48.324Z,4.40
2023-03-08T01:16:49.792Z,4.50
2023-03-08T01:17:51.795Z,4.50
2023-03-08T01:18:53.802Z,4.50
2023-03-08T01:19:55.332Z,4.40
2023-03-08T01:21:02.171Z,4.40
2023-03-08T01:22:04.297Z,4.30
2023-03-08T01:23:07.725Z,4.30
2023-03-08T01:24:09.233Z,4.40
2023-03-08T01:25:10.819Z,4.40
2023-03-08T01:26:18.227Z,4.40
2023-03-08T01:27:19.844Z,4.40
2023-03-08T01:28:21.341Z,4.40
2023-03-08T01:29:22.741Z,4.40
2023-03-08T01:30:24.643Z,4.40
2023-03-08T01:31:28.986Z,4.30
2023-03-08T01:32:31.476Z,4.20
2023-03-08T01:33:33.625Z,4.20
2023-03-08T01:34:36.252Z,4.10
2023-03-08T01:35:38.619Z,4.10
2023-03-08T01:36:40.205Z,4.10
2023-03-08T01:37:41.619Z,4.00
2023-03-08T01:38:43.104Z,4.00
2023-03-08T01:39:44.593Z,4.00
2023-03-08T01:40:46.266Z,3.90
2023-03-08T01:41:47.986Z,3.90
2023-03-08T01:42:49.641Z,3.90
2023-03-08T01:43:52.169Z,3.90
2023-03-08T01:45:00.205Z,3.90
2023-03-08T01:46:15.557Z,3.90
2023-03-08T01:47:24.885Z,3.90
2023-03-08T01:49:25.818Z,3.90
2023-03-08T01:50:27.937Z,3.90
2023-03-08T01:51:35.166Z,4.00
2023-03-08T01:52:41.845Z,3.90
2023-03-08T01:53:44.066Z,3.90
2023-03-08T01:54:56.742Z,3.80
2023-03-08T01:55:58.366Z,3.90
2023-03-08T01:57:04.348Z,3.80
2023-03-08T01:58:05.829Z,3.80
2023-03-08T01:59:07.740Z,3.70
2023-03-08T02:00:12.733Z,3.70
2023-03-08T02:01:18.550Z,3.80
2023-03-08T02:02:27.899Z,3.80
2023-03-08T02:03:30.014Z,3.80
2023-03-08T02:04:31.560Z,3.80
2023-03-08T02:05:36.412Z,3.80
2023-03-08T02:06:47.184Z,3.70
2023-03-08T02:07:53.609Z,3.70
2023-03-08T02:08:58.889Z,3.70
2023-03-08T02:10:00.587Z,3.60
2023-03-08T02:11:02.892Z,3.50
2023-03-08T02:12:08.841Z,3.50
2023-03-08T02:13:11.362Z,3.50
2023-03-08T02:14:16.082Z,3.60
2023-03-08T02:15:21.893Z,3.60
2023-03-08T02:16:27.082Z,3.60
2023-03-08T02:17:29.277Z,3.50
2023-03-08T02:18:33.884Z,3.50
2023-03-08T02:20:06.252Z,3.50
2023-03-08T02:21:07.730Z,3.40
2023-03-08T02:22:11.220Z,3.30
2023-03-08T02:23:21.197Z,3.40
2023-03-08T02:24:24.739Z,3.40
2023-03-08T02:25:27.538Z,3.40
2023-03-08T02:26:29.202Z,3.40
2023-03-08T02:27:30.670Z,3.40
2023-03-08T02:28:33.358Z,3.40
2023-03-08T02:29:35.674Z,3.40
2023-03-08T02:30:38.354Z,3.30
2023-03-08T02:31:40.319Z,3.30
2023-03-08T02:32:42.463Z,3.40
2023-03-08T02:33:44.063Z,3.40
2023-03-08T02:34:45.683Z,3.40
2023-03-08T02:35:47.421Z,3.50
2023-03-08T02:36:48.869Z,3.40
2023-03-08T02:37:52.068Z,3.50
2023-03-08T02:38:53.705Z,3.50
2023-03-08T02:39:55.723Z,3.50
2023-03-08T02:40:57.167Z,3.50
2023-03-08T02:41:58.759Z,3.50
2023-03-08T02:43:00.183Z,3.60
2023-03-08T02:44:02.536Z,3.70
2023-03-08T02:45:04.948Z,3.70
2023-03-08T02:46:07.332Z,3.70
2023-03-08T02:47:09.182Z,3.70
2023-03-08T02:48:10.978Z,3.70
2023-03-08T02:49:12.374Z,3.80
2023-03-08T02:50:13.816Z,3.80
2023-03-08T02:51:15.445Z,3.90
2023-03-08T02:52:16.975Z,3.80
2023-03-08T02:53:18.548Z,3.90
2023-03-08T02:54:19.962Z,3.80
2023-03-08T02:55:21.474Z,3.80
2023-03-08T02:56:23.686Z,3.80
2023-03-08T02:57:25.804Z,3.80
2023-03-08T02:58:29.122Z,3.80
2023-03-08T02:59:30.950Z,3.80
2023-03-08T03:00:33.038Z,3.80
2023-03-08T03:01:36.411Z,3.90
2023-03-08T03:02:37.852Z,3.90
2023-03-08T03:03:40.218Z,3.90
2023-03-08T03:04:41.729Z,4.00
2023-03-08T03:05:44.775Z,4.00
2023-03-08T03:06:50.584Z,4.10
2023-03-08T03:07:52.603Z,4.10
2023-03-08T03:08:55.792Z,4.10
2023-03-08T03:09:57.222Z,4.10
2023-03-08T03:10:59.372Z,4.10
2023-03-08T03:12:01.427Z,4.10
2023-03-08T03:13:05.125Z,4.20
2023-03-08T03:14:07.485Z,4.20
2023-03-08T03:15:14.160Z,4.20
2023-03-08T03:16:17.160Z,4.30
2023-03-08T03:17:18.903Z,4.40
2023-03-08T03:18:20.297Z,4.40
2023-03-08T03:19:21.895Z,4.40
2023-03-08T03:20:23.379Z,4.40
2023-03-08T03:21:25.440Z,4.40
2023-03-08T03:22:28.016Z,4.40
2023-03-08T03:23:29.797Z,4.40
2023-03-08T03:24:31.565Z,4.40
2023-03-08T03:25:38.164Z,4.40
2023-03-08T03:26:41.870Z,4.50
2023-03-08T03:27:43.558Z,4.50
2023-03-08T03:28:45.789Z,4.60
2023-03-08T03:29:47.363Z,4.60
2023-03-08T03:30:51.578Z,4.60
2023-03-08T03:31:53.102Z,4.70
2023-03-08T03:32:55.625Z,4.70
2023-03-08T03:34:01.883Z,4.80
2023-03-08T03:35:03.944Z,4.80
2023-03-08T03:36:07.133Z,4.80
2023-03-08T03:37:09.678Z,4.80
2023-03-08T03:38:13.880Z,4.80
2023-03-08T03:39:18.134Z,4.80
2023-03-08T03:40:20.846Z,4.80
2023-03-08T03:41:27.791Z,4.80
2023-03-08T03:42:36.810Z,4.90
2023-03-08T03:43:44.026Z,4.90
2023-03-08T03:44:46.640Z,4.90
2023-03-08T03:45:57.005Z,5.00
2023-03-08T03:46:59.093Z,5.00
2023-03-08T03:48:02.461Z,5.10
2023-03-08T03:49:04.799Z,5.10
2023-03-08T03:50:11.005Z,5.10
2023-03-08T03:51:23.426Z,5.20
2023-03-08T03:52:32.411Z,5.20
2023-03-08T03:53:38.755Z,5.20
2023-03-08T03:54:40.148Z,5.20
2023-03-08T03:55:42.471Z,5.30
2023-03-08T03:56:44.270Z,5.20
2023-03-08T03:57:45.814Z,5.30
2023-03-08T03:58:51.746Z,5.30
2023-03-08T03:59:55.277Z,5.20
2023-03-08T04:00:58.233Z,5.20
2023-03-08T04:02:04.830Z,5.20
2023-03-08T04:03:14.654Z,5.20
2023-03-08T04:04:18.274Z,5.20
2023-03-08T04:05:22.018Z,5.20
2023-03-08T04:06:32.445Z,5.10
2023-03-08T04:07:34.123Z,5.10
2023-03-08T04:08:42.108Z,5.10
2023-03-08T04:09:47.594Z,5.10
2023-03-08T04:10:51.330Z,5.00
2023-03-08T04:11:53.356Z,5.00
2023-03-08T04:12:56.676Z,5.00
2023-03-08T04:13:58.322Z,4.90
2023-03-08T04:15:02.153Z,4.90
2023-03-08T04:16:17.242Z,4.90
2023-03-08T04:17:18.658Z,4.90
2023-03-08T04:18:28.437Z,4.90
2023-03-08T04:19:30.077Z,5.00
2023-03-08T04:20:33.357Z,5.00
2023-03-08T04:21:36.089Z,5.00
2023-03-08T04:22:37.771Z,4.90
2023-03-08T04:23:50.162Z,4.90
2023-03-08T04:24:51.764Z,4.80
2023-03-08T04:26:13.279Z,4.80
2023-03-08T04:27:14.758Z,4.90
2023-03-08T04:28:16.172Z,4.90
2023-03-08T04:29:18.357Z,4.90
2023-03-08T04:30:19.912Z,4.80
2023-03-08T04:31:26.914Z,4.80
2023-03-08T04:32:32.364Z,4.80
2023-03-08T04:33:33.919Z,4.90
2023-03-08T04:34:35.462Z,4.80
2023-03-08T04:35:37.041Z,4.90
2023-03-08T04:36:38.659Z,4.90
2023-03-08T04:37:40.211Z,4.90
2023-03-08T04:38:46.954Z,4.90
2023-03-08T04:39:48.428Z,4.90
2023-03-08T04:41:12.492Z,4.90
2023-03-08T04:42:36.276Z,4.90
2023-03-08T04:43:58.303Z,4.90
2023-03-08T04:45:15.159Z,4.80
2023-03-08T04:46:18.384Z,4.80
2023-03-08T04:47:19.857Z,4.80
2023-03-08T04:48:21.298Z,4.80
2023-03-08T04:49:24.018Z,4.80
2023-03-08T04:50:29.806Z,4.80
2023-03-08T04:51:32.418Z,4.80
2023-03-08T04:52:37.740Z,4.80
2023-03-08T04:53:41.684Z,4.80
2023-03-08T04:54:45.955Z,4.80
2023-03-08T04:56:00.630Z,4.80
2023-03-08T04:57:02.072Z,4.80
2023-03-08T04:58:07.179Z,4.80
2023-03-08T04:59:08.618Z,4.80
2023-03-08T05:00:11.230Z,4.80
2023-03-08T05:01:18.006Z,4.80
2023-03-08T05:02:19.780Z,4.80
2023-03-08T05:03:22.158Z,4.80
2023-03-08T05:04:23.702Z,4.90
2023-03-08T05:05:25.143Z,4.90
2023-03-08T05:06:28.239Z,4.80
2023-03-08T05:07:34.926Z,4.80
2023-03-08T05:08:37.332Z,4.80
2023-03-08T05:09:42.800Z,4.80
2023-03-08T05:11:00.607Z,4.80
2023-03-08T05:12:07.210Z,4.80
2023-03-08T05:13:20.173Z,4.80
2023-03-08T05:14:21.811Z,4.80
2023-03-08T05:15:25.776Z,4.80
2023-03-08T05:16:27.696Z,4.80
2023-03-08T05:17:30.865Z,4.80
2023-03-08T05:18:32.814Z,4.80
2023-03-08T05:19:34.206Z,4.80
2023-03-08T05:20:35.950Z,4.80
2023-03-08T05:21:37.641Z,4.80
2023-03-08T05:22:56.852Z,4.80
2023-03-08T05:24:02.585Z,4.80
2023-03-08T05:25:07.876Z,5.00
2023-03-08T05:26:12.322Z,5.00
2023-03-08T05:27:14.756Z,5.00
2023-03-08T05:28:16.385Z,5.10
2023-03-08T05:29:20.439Z,5.10
2023-03-08T05:30:22.039Z,5.10
2023-03-08T05:31:24.725Z,5.10
2023-03-08T05:32:28.232Z,5.10
2023-03-08T05:33:30.250Z,5.10
2023-03-08T05:34:32.086Z,5.00
2023-03-08T05:35:34.976Z,5.00
2023-03-08T05:36:36.622Z,5.00
2023-03-08T05:37:40.922Z,5.00
2023-03-08T05:38:42.788Z,5.00
2023-03-08T05:39:47.367Z,5.00
2023-03-08T05:40:59.345Z,5.00
2023-03-08T05:42:01.070Z,4.90
2023-03-08T05:43:10.092Z,5.00
2023-03-08T05:44:11.625Z,5.00
2023-03-08T05:45:14.768Z,5.00
2023-03-08T05:46:19.194Z,5.00
2023-03-08T05:47:22.245Z,5.00
2023-03-08T05:48:25.907Z,5.00
2023-03-08T05:49:28.115Z,5.10
2023-03-08T05:50:29.866Z,5.10
2023-03-08T05:51:31.306Z,5.10
2023-03-08T05:52:36.205Z,5.00
2023-03-08T05:53:39.268Z,5.10
2023-03-08T05:54:40.755Z,5.00
2023-03-08T05:55:47.185Z,5.10
2023-03-08T05:56:50.238Z,5.10
2023-03-08T05:58:05.867Z,5.00
2023-03-08T05:59:07.390Z,5.10
2023-03-08T06:00:09.852Z,5.10
2023-03-08T06:01:20.960Z,5.10
2023-03-08T06:02:22.622Z,5.10
2023-03-08T06:03:27.797Z,5.10
2023-03-08T06:04:29.542Z,5.10
2023-03-08T06:05:32.453Z,5.10
2023-03-08T06:06:35.014Z,5.10
2023-03-08T06:07:39.253Z,5.00
2023-03-08T06:08:46.837Z,5.00
2023-03-08T06:09:48.759Z,5.10
2023-03-08T06:10:52.378Z,5.10
2023-03-08T06:11:55.732Z,5.10
2023-03-08T06:12:58.577Z,5.00
2023-03-08T06:14:00.204Z,5.10
2023-03-08T06:15:06.104Z,5.10
2023-03-08T06:16:10.638Z,5.10
2023-03-08T06:17:12.634Z,5.10
2023-03-08T06:18:18.237Z,5.10
2023-03-08T06:19:20.289Z,5.20
2023-03-08T06:20:24.951Z,5.20
2023-03-08T06:21:26.959Z,5.10
2023-03-08T06:22:35.247Z,5.10
2023-03-08T06:23:37.196Z,5.20
2023-03-08T06:24:38.805Z,5.20
2023-03-08T06:25:44.133Z,5.20
2023-03-08T06:26:46.314Z,5.30
2023-03-08T06:27:50.406Z,5.20
2023-03-08T06:29:00.408Z,5.20
2023-03-08T06:30:05.402Z,5.10
2023-03-08T06:31:09.340Z,5.10
2023-03-08T06:32:11.010Z,5.10
2023-03-08T06:33:14.811Z,5.20
2023-03-08T06:34:18.392Z,5.30
2023-03-08T06:35:21.047Z,5.20
2023-03-08T06:36:28.774Z,5.30
2023-03-08T06:37:34.275Z,5.20
2023-03-08T06:38:38.417Z,5.30
2023-03-08T06:39:40.551Z,5.30
2023-03-08T06:40:41.982Z,5.30
2023-03-08T06:41:43.903Z,5.30
2023-03-08T06:42:47.296Z,5.30
2023-03-08T06:43:50.252Z,5.30
2023-03-08T06:44:51.920Z,5.30
2023-03-08T06:45:53.671Z,5.30
2023-03-08T06:46:56.741Z,5.30
2023-03-08T06:48:00.494Z,5.40
2023-03-08T06:49:04.249Z,5.40
2023-03-08T06:50:07.193Z,5.40
2023-03-08T06:51:09.398Z,5.40
2023-03-08T06:52:11.936Z,5.40
2023-03-08T06:53:14.032Z,5.50
2023-03-08T06:54:27.192Z,5.50
2023-03-08T06:55:28.571Z,5.50
2023-03-08T06:56:30.053Z,5.50
2023-03-08T06:57:31.716Z,5.50
2023-03-08T06:58:34.799Z,5.50
2023-03-08T06:59:36.268Z,5.70
2023-03-08T07:00:37.975Z,5.70
2023-03-08T07:01:39.933Z,5.80
2023-03-08T07:02:41.690Z,5.70
2023-03-08T07:03:45.307Z,5.70
2023-03-08T07:04:49.470Z,5.60
2023-03-08T07:05:51.082Z,5.60
2023-03-08T07:06:52.839Z,5.60
2023-03-08T07:07:54.454Z,5.60
2023-03-08T07:08:55.915Z,5.50
2023-03-08T07:09:58.023Z,5.60
2023-03-08T07:11:00.024Z,5.60
2023-03-08T07:12:01.624Z,5.60
2023-03-08T07:13:03.034Z,5.70
2023-03-08T07:14:04.593Z,5.70
2023-03-08T07:15:10.772Z,5.70
2023-03-08T07:16:13.699Z,5.70
2023-03-08T07:17:16.224Z,5.80
2023-03-08T07:18:18.202Z,5.70
2023-03-08T07:19:19.729Z,5.70
2023-03-08T07:20:23.241Z,5.80
2023-03-08T07:21:24.809Z,5.90
2023-03-08T07:22:26.508Z,5.90
2023-03-08T07:23:28.165Z,5.90
2023-03-08T07:24:29.697Z,6.00
2023-03-08T07:25:31.809Z,6.00
2023-03-08T07:26:33.454Z,6.00
2023-03-08T07:27:35.067Z,6.10
2023-03-08T07:28:37.227Z,6.10
2023-03-08T07:29:39.926Z,6.00
2023-03-08T07:30:41.450Z,6.00
2023-03-08T07:31:43.281Z,6.10
2023-03-08T07:32:45.200Z,6.10
2023-03-08T07:33:47.043Z,6.10
2023-03-08T07:34:48.517Z,6.10
2023-03-08T07:35:50.051Z,6.20
2023-03-08T07:36:51.731Z,6.20
2023-03-08T07:37:53.303Z,6.30
2023-03-08T07:38:54.771Z,6.30
2023-03-08T07:39:56.396Z,6.30
2023-03-08T07:40:57.941Z,6.40
2023-03-08T07:41:59.413Z,6.40
2023-03-08T07:43:01.634Z,6.50
2023-03-08T07:44:10.804Z,6.70
2023-03-08T07:45:13.497Z,6.80
2023-03-08T07:46:15.363Z,7.00
2023-03-08T07:47:17.120Z,7.10
2023-03-08T07:48:18.626Z,7.20
2023-03-08T07:49:20.084Z,7.40
2023-03-08T07:50:22.035Z,7.50
2023-03-08T07:51:24.145Z,7.70
2023-03-08T07:52:29.965Z,7.80
2023-03-08T07:53:31.571Z,7.90
2023-03-08T07:54:33.104Z,8.10
2023-03-08T07:55:36.498Z,8.20
2023-03-08T07:56:37.918Z,8.30
2023-03-08T07:57:39.564Z,8.40
2023-03-08T07:58:41.045Z,8.50
2023-03-08T07:59:42.931Z,8.60
2023-03-08T08:00:44.480Z,8.60
2023-03-08T08:01:46.009Z,8.60
2023-03-08T08:02:48.171Z,8.70
2023-03-08T08:03:50.892Z,8.70
2023-03-08T08:04:52.372Z,8.80
2023-03-08T08:05:53.891Z,8.90
2023-03-08T08:06:55.323Z,8.90
2023-03-08T08:07:57.106Z,9.00
2023-03-08T08:08:58.591Z,9.10
2023-03-08T08:09:59.996Z,9.20
2023-03-08T08:11:01.988Z,9.20
2023-03-08T08:12:05.133Z,9.30
2023-03-08T08:13:06.736Z,9.30
2023-03-08T08:14:08.260Z,9.40
2023-03-08T08:15:10.067Z,9.40
2023-03-08T08:16:11.962Z,9.40
2023-03-08T08:17:13.405Z,9.50
2023-03-08T08:18:14.886Z,9.60
2023-03-08T08:19:17.200Z,9.60
2023-03-08T08:20:19.180Z,9.70
2023-03-08T08:21:21.089Z,9.70
2023-03-08T08:22:23.048Z,9.80
2023-03-08T08:23:24.413Z,9.80
2023-03-08T08:24:26.639Z,9.80
2023-03-08T08:25:28.141Z,9.80
2023-03-08T08:26:29.706Z,9.80
2023-03-08T08:27:31.150Z,9.80
2023-03-08T08:28:34.978Z,9.90
2023-03-08T08:29:37.626Z,9.90
2023-03-08T08:30:39.279Z,9.90
2023-03-08T08:31:40.914Z,10.00
2023-03-08T08:32:42.641Z,10.10
2023-03-08T08:33:44.462Z,10.10
2023-03-08T08:34:46.087Z,10.10
2023-03-08T08:35:47.564Z,10.20
2023-03-08T08:36:49.224Z,10.20
2023-03-08T08:37:50.942Z,10.30
2023-03-08T08:38:52.607Z,10.30
2023-03-08T08:39:54.445Z,10.40
2023-03-08T08:41:02.171Z,10.40
2023-03-08T08:42:03.994Z,10.40
2023-03-08T08:43:05.371Z,10.40
2023-03-08T08:44:07.169Z,10.50
2023-03-08T08:45:09.770Z,10.60
2023-03-08T08:46:11.651Z,10.60
2023-03-08T08:47:13.132Z,10.60
2023-03-08T08:48:15.137Z,10.60
2023-03-08T08:49:16.595Z,10.70
2023-03-08T08:50:18.481Z,10.70
2023-03-08T08:51:20.360Z,10.70
2023-03-08T08:52:22.085Z,10.70
2023-03-08T08:53:23.739Z,10.70
2023-03-08T08:54:25.624Z,10.60
2023-03-08T08:55:27.656Z,10.60
2023-03-08T08:56:29.608Z,10.60
2023-03-08T08:57:35.141Z,10.60
2023-03-08T08:58:36.624Z,10.60
2023-03-08T08:59:38.151Z,10.50
2023-03-08T09:00:39.589Z,10.50
2023-03-08T09:01:44.149Z,10.50
2023-03-08T09:02:45.993Z,10.50
2023-03-08T09:03:48.224Z,10.50
2023-03-08T09:04:49.774Z,10.50
2023-03-08T09:05:51.258Z,10.50
2023-03-08T09:06:53.676Z,10.50
2023-03-08T09:07:58.376Z,10.50
2023-03-08T09:08:59.876Z,10.60
2023-03-08T09:10:01.346Z,10.50
2023-03-08T09:11:07.726Z,10.60
2023-03-08T09:12:09.434Z,10.60
2023-03-08T09:13:12.601Z,10.60
2023-03-08T09:14:15.069Z,10.70
2023-03-08T09:15:16.636Z,10.70
2023-03-08T09:16:21.110Z,10.70
2023-03-08T09:17:22.714Z,10.80
2023-03-08T09:18:24.317Z,10.80
2023-03-08T09:19:25.944Z,10.90
2023-03-08T09:20:27.371Z,10.90
2023-03-08T09:21:29.961Z,10.90
2023-03-08T09:22:31.491Z,10.90
2023-03-08T09:23:32.913Z,11.00
2023-03-08T09:24:34.454Z,10.90
2023-03-08T09:25:35.949Z,10.90
2023-03-08T09:26:37.490Z,11.00
2023-03-08T09:27:41.078Z,11.00
2023-03-08T09:28:42.724Z,11.00
2023-03-08T09:29:44.447Z,11.00
2023-03-08T09:30:45.945Z,11.00
2023-03-08T09:31:47.519Z,11.00
2023-03-08T09:32:49.269Z,11.00
2023-03-08T09:33:52.304Z,11.00
2023-03-08T09:34:54.511Z,11.00
2023-03-08T09:36:01.173Z,11.00
2023-03-08T09:37:03.402Z,11.00
2023-03-08T09:38:04.913Z,10.90
2023-03-08T09:39:08.811Z,11.00
2023-03-08T09:40:19.922Z,11.00
2023-03-08T09:41:44.691Z,11.00
2023-03-08T09:42:46.351Z,11.10
2023-03-08T09:44:04.719Z,11.10
2023-03-08T09:45:28.246Z,11.00
2023-03-08T09:46:40.106Z,11.00
2023-03-08T09:48:17.540Z,10.90
2023-03-08T09:49:25.113Z,11.00
2023-03-08T09:50:53.440Z,11.00
2023-03-08T09:52:20.652Z,11.10
2023-03-08T09:53:35.832Z,11.10
2023-03-08T09:54:39.041Z,11.10
2023-03-08T09:56:04.711Z,11.10
2023-03-08T09:57:14.745Z,11.10
2023-03-08T09:58:32.500Z,11.20
2023-03-08T10:00:02.341Z,11.30
2023-03-08T10:01:16.676Z,11.20
2023-03-08T10:02:50.779Z,11.20
2023-03-08T10:04:13.483Z,11.20
2023-03-08T10:05:40.894Z,11.20
2023-03-08T10:06:49.811Z,11.10
2023-03-08T10:08:03.571Z,11.20
2023-03-08T10:09:14.063Z,11.20
2023-03-08T10:10:41.582Z,11.20
2023-03-08T10:11:50.650Z,11.20
2023-03-08T10:13:08.757Z,11.20
2023-03-08T10:14:18.872Z,11.20
2023-03-08T10:15:24.048Z,11.40
2023-03-08T10:16:33.150Z,11.40
2023-03-08T10:17:46.232Z,11.40
2023-03-08T10:18:59.912Z,11.50
2023-03-08T10:20:14.575Z,11.60
2023-03-08T10:21:21.017Z,11.60
2023-03-08T10:22:30.084Z,11.60
2023-03-08T10:23:33.628Z,11.60
2023-03-08T10:24:45.534Z,11.60
2023-03-08T10:25:49.692Z,11.60
2023-03-08T10:26:51.133Z,11.50
2023-03-08T10:27:56.064Z,11.50
2023-03-08T10:28:57.530Z,11.60
2023-03-08T10:30:01.255Z,11.50
2023-03-08T10:31:16.401Z,11.50
2023-03-08T10:32:18.084Z,11.50
2023-03-08T10:33:24.352Z,11.60
2023-03-08T10:34:30.819Z,11.60
2023-03-08T10:35:50.378Z,11.60
2023-03-08T10:36:59.738Z,11.70
2023-03-08T10:38:01.144Z,11.70
2023-03-08T10:39:11.575Z,11.70
2023-03-08T10:40:21.305Z,11.70
2023-03-08T10:41:22.828Z,11.70
2023-03-08T10:42:27.964Z,11.70
2023-03-08T10:43:31.272Z,11.70
2023-03-08T10:44:44.487Z,11.70
2023-03-08T10:45:57.010Z,11.80
2023-03-08T10:46:59.587Z,11.70
2023-03-08T10:48:04.249Z,11.70
2023-03-08T10:49:14.882Z,11.60
2023-03-08T10:50:22.176Z,11.60
2023-03-08T10:51:26.621Z,11.60
2023-03-08T10:52:28.623Z,11.60
2023-03-08T10:53:30.944Z,11.50
2023-03-08T10:54:32.681Z,11.50
2023-03-08T10:55:43.487Z,11.50
2023-03-08T10:56:51.711Z,11.50
2023-03-08T10:58:01.391Z,11.60
2023-03-08T10:59:04.253Z,11.60
2023-03-08T11:00:31.498Z,11.50
2023-03-08T11:01:35.620Z,11.60
2023-03-08T11:02:37.048Z,11.60
2023-03-08T11:03:38.601Z,11.50
2023-03-08T11:04:52.741Z,11.50
2023-03-08T11:05:59.209Z,11.50
2023-03-08T11:07:16.775Z,11.50
2023-03-08T11:08:21.940Z,11.50
2023-03-08T11:09:31.514Z,11.30
2023-03-08T11:10:33.299Z,11.40
2023-03-08T11:11:42.423Z,11.40
2023-03-08T11:12:44.470Z,11.40
2023-03-08T11:13:48.291Z,11.40
2023-03-08T11:14:49.862Z,11.40
2023-03-08T11:16:30.176Z,11.40
2023-03-08T11:17:39.319Z,11.30
2023-03-08T11:18:59.197Z,11.30
2023-03-08T11:20:11.280Z,11.30
2023-03-08T11:21:22.377Z,11.30
2023-03-08T11:23:05.309Z,11.30
2023-03-08T11:24:18.348Z,11.30
2023-03-08T11:25:25.479Z,11.40
2023-03-08T11:26:55.872Z,11.40
2023-03-08T11:28:29.454Z,11.40
2023-03-08T11:30:01.557Z,11.40
2023-03-08T11:31:32.285Z,11.40
2023-03-08T11:32:40.906Z,11.40
2023-03-08T11:34:06.635Z,11.50
2023-03-08T11:35:11.538Z,11.50
2023-03-08T11:36:18.904Z,11.50
2023-03-08T11:37:23.194Z,11.50
2023-03-08T11:38:30.181Z,11.50
2023-03-08T11:39:33.268Z,11.60
2023-03-08T11:40:50.841Z,11.60
2023-03-08T11:41:52.442Z,11.60
2023-03-08T11:42:56.678Z,11.60
2023-03-08T11:44:09.924Z,11.60
2023-03-08T11:45:27.341Z,11.80
2023-03-08T11:46:56.271Z,11.90
2023-03-08T11:48:06.717Z,12.00
2023-03-08T11:49:37.105Z,12.00
2023-03-08T11:50:51.382Z,12.00
2023-03-08T11:52:15.761Z,12.10
2023-03-08T11:53:35.421Z,12.10
2023-03-08T11:55:08.173Z,12.10
2023-03-08T11:56:27.099Z,12.10
2023-03-08T11:57:34.431Z,12.20
2023-03-08T11:58:53.379Z,12.20
2023-03-08T11:59:57.872Z,12.20
2023-03-08T12:01:22.175Z,12.20
2023-03-08T12:02:30.018Z,12.30
2023-03-08T12:03:36.741Z,12.30
2023-03-08T12:05:01.507Z,12.40
2023-03-08T12:06:27.981Z,12.40
2023-03-08T12:07:35.472Z,12.40
2023-03-08T12:08:44.018Z,12.50
2023-03-08T12:10:02.472Z,12.50
2023-03-08T12:11:20.897Z,12.60
2023-03-08T12:12:32.538Z,12.60
2023-03-08T12:13:42.088Z,12.70
2023-03-08T12:14:59.153Z,12.70
2023-03-08T12:16:29.204Z,12.80
2023-03-08T12:17:37.799Z,12.80
2023-03-08T12:18:53.170Z,12.80
2023-03-08T12:19:54.699Z,12.80
2023-03-08T12:21:07.317Z,12.90
2023-03-08T12:22:33.631Z,12.90
2023-03-08T12:23:41.226Z,12.90
2023-03-08T12:24:45.752Z,13.00
2023-03-08T12:25:52.311Z,13.10
2023-03-08T12:27:00.912Z,13.10
2023-03-08T12:28:17.620Z,13.20
2023-03-08T12:29:49.871Z,13.20
2023-03-08T12:31:24.789Z,13.20
2023-03-08T12:32:29.231Z,13.20
2023-03-08T12:33:33.307Z,13.20
2023-03-08T12:34:40.258Z,13.20
2023-03-08T12:36:10.962Z,13.20
2023-03-08T12:37:26.139Z,13.20
2023-03-08T12:38:35.807Z,13.20
2023-03-08T12:39:37.863Z,13.20
2023-03-08T12:40:44.291Z,13.20
2023-03-08T12:42:15.396Z,13.20
2023-03-08T12:43:19.611Z,13.20
2023-03-08T12:44:26.919Z,13.20
2023-03-08T12:45:31.007Z,13.20
2023-03-08T12:47:02.913Z,13.10
2023-03-08T12:48:05.520Z,13.00
2023-03-08T12:49:26.678Z,12.90
2023-03-08T12:50:28.994Z,13.00
2023-03-08T12:51:34.208Z,13.00
2023-03-08T12:52:36.396Z,13.00
2023-03-08T12:53:49.996Z,13.00
2023-03-08T12:54:59.435Z,13.00
2023-03-08T12:56:10.551Z,13.00
2023-03-08T12:57:22.311Z,13.00
2023-03-08T12:58:24.267Z,13.00
2023-03-08T12:59:32.834Z,13.00
2023-03-08T13:00:37.750Z,13.00
2023-03-08T13:01:43.914Z,13.00
2023-03-08T13:02:46.257Z,13.10
2023-03-08T13:03:47.703Z,13.10
2023-03-08T13:04:49.444Z,13.20
2023-03-08T13:05:51.291Z,13.20
2023-03-08T13:06:52.767Z,13.20
2023-03-08T13:08:01.943Z,13.20
2023-03-08T13:09:19.782Z,13.20
2023-03-08T13:10:27.496Z,13.20
2023-03-08T13:11:41.528Z,13.20
2023-03-08T13:12:48.562Z,13.20
2023-03-08T13:13:57.290Z,13.20
2023-03-08T13:15:02.239Z,13.20
2023-03-08T13:16:15.759Z,13.10
2023-03-08T13:17:39.253Z,13.20
2023-03-08T13:18:46.358Z,13.20
2023-03-08T13:19:49.956Z,13.20
2023-03-08T13:21:00.608Z,13.10
2023-03-08T13:22:24.142Z,13.20
2023-03-08T13:23:52.973Z,13.20
2023-03-08T13:25:10.073Z,13.20
2023-03-08T13:26:49.342Z,13.20
2023-03-08T13:27:54.787Z,13.20
2023-03-08T13:28:56.887Z,13.20
2023-03-08T13:30:24.649Z,13.20
2023-03-08T13:31:30.766Z,13.20
2023-03-08T13:32:33.055Z,13.20
2023-03-08T13:33:40.354Z,13.20
2023-03-08T13:34:45.516Z,13.30
2023-03-08T13:36:26.841Z,13.40
2023-03-08T13:37:30.206Z,13.40
2023-03-08T13:38:36.954Z,13.50
2023-03-08T13:39:38.343Z,13.50
2023-03-08T13:40:51.214Z,13.50
2023-03-08T13:41:52.940Z,13.50
2023-03-08T13:43:05.202Z,13.40
2023-03-08T13:44:26.980Z,13.40
2023-03-08T13:45:29.665Z,13.50
2023-03-08T13:46:31.243Z,13.50
2023-03-08T13:47:35.541Z,13.60
2023-03-08T13:48:37.478Z,13.60
2023-03-08T13:49:44.646Z,13.50
2023-03-08T13:50:50.969Z,13.50
2023-03-08T13:51:55.712Z,13.50
2023-03-08T13:52:58.109Z,13.50
2023-03-08T13:53:59.835Z,13.40
2023-03-08T13:55:04.563Z,13.50
2023-03-08T13:56:07.129Z,13.50
2023-03-08T13:57:40.214Z,13.50
2023-03-08T13:58:46.657Z,13.60
2023-03-08T13:59:50.612Z,13.50
2023-03-08T14:01:19.253Z,13.50
2023-03-08T14:02:28.621Z,13.50
2023-03-08T14:03:32.243Z,13.60
2023-03-08T14:04:35.095Z,13.50
2023-03-08T14:05:43.967Z,13.50
2023-03-08T14:06:57.040Z,13.40
2023-03-08T14:08:03.329Z,13.50
2023-03-08T14:09:05.851Z,13.50
2023-03-08T14:10:14.282Z,13.60
2023-03-08T14:11:24.909Z,13.60
2023-03-08T14:12:30.386Z,13.60
2023-03-08T14:13:39.069Z,13.70
2023-03-08T14:14:43.393Z,13.70
2023-03-08T14:16:08.117Z,13.80
2023-03-08T14:17:23.340Z,13.80
2023-03-08T14:18:38.261Z,13.90
2023-03-08T14:19:40.647Z,13.80
2023-03-08T14:20:43.136Z,13.90
2023-03-08T14:21:50.812Z,13.80
2023-03-08T14:22:54.482Z,13.80
2023-03-08T14:23:59.792Z,13.90
2023-03-08T14:25:02.705Z,14.00
2023-03-08T14:26:04.501Z,13.90
2023-03-08T14:27:42.554Z,14.00